sensor_id;sensor_type;location;lat;lon;timestamp;pressure;altitude;pressure_sealevel;temperature;humidity
36222;BME280;22266;52.340;4.962;2022-11-20T00:01:23;101396.63;;;0.92;66.15
36222;BME280;22266;52.340;4.962;2022-11-20T00:03:54;101389.78;;;0.89;66.08
36222;BME280;22266;52.340;4.962;2022-11-20T00:06:22;101390.72;;;0.88;66.47
36222;BME280;22266;52.340;4.962;2022-11-20T00:08:48;101383.84;;;0.86;66.18
36222;BME280;22266;52.340;4.962;2022-11-20T00:11:18;101396.97;;;0.87;66.23
36222;BME280;22266;52.340;4.962;2022-11-20T00:13:45;101386.25;;;0.89;66.76
36222;BME280;22266;52.340;4.962;2022-11-20T00:16:14;101389.78;;;0.89;66.28
36222;BME280;22266;52.340;4.962;2022-11-20T00:18:41;101388.06;;;0.88;66.43
36222;BME280;22266;52.340;4.962;2022-11-20T00:21:16;101386.16;;;0.90;66.09
36222;BME280;22266;52.340;4.962;2022-11-20T00:23:43;101389.78;;;0.89;66.32
36222;BME280;22266;52.340;4.962;2022-11-20T00:26:12;101385.31;;;0.90;66.06
36222;BME280;22266;52.340;4.962;2022-11-20T00:28:39;101384.34;;;0.91;66.31
36222;BME280;22266;52.340;4.962;2022-11-20T00:31:08;101385.31;;;0.90;65.87
36222;BME280;22266;52.340;4.962;2022-11-20T00:33:34;101384.47;;;0.89;66.08
36222;BME280;22266;52.340;4.962;2022-11-20T00:36:02;101377.47;;;0.88;66.30
36222;BME280;22266;52.340;4.962;2022-11-20T00:38:33;101355.19;;;0.91;66.01
36222;BME280;22266;52.340;4.962;2022-11-20T00:41:01;101365.66;;;0.92;65.51
36222;BME280;22266;52.340;4.962;2022-11-20T00:43:28;101361.94;;;0.95;65.31
36222;BME280;22266;52.340;4.962;2022-11-20T00:46:02;101370.97;;;0.92;65.27
36222;BME280;22266;52.340;4.962;2022-11-20T00:48:30;101367.59;;;0.90;64.83
36222;BME280;22266;52.340;4.962;2022-11-20T00:50:57;101367.59;;;0.90;65.20
36222;BME280;22266;52.340;4.962;2022-11-20T00:53:24;101365.66;;;0.92;65.02
36222;BME280;22266;52.340;4.962;2022-11-20T00:55:59;101366.84;;;0.88;65.24
36222;BME280;22266;52.340;4.962;2022-11-20T00:58:29;101365.53;;;0.83;64.93
36222;BME280;22266;52.340;4.962;2022-11-20T01:01:01;101371.19;;;0.78;65.46
36222;BME280;22266;52.340;4.962;2022-11-20T01:03:31;101366.25;;;0.73;65.58
36222;BME280;22266;52.340;4.962;2022-11-20T01:06:07;101368.28;;;0.70;65.77
36222;BME280;22266;52.340;4.962;2022-11-20T01:08:36;101372.97;;;0.66;65.70
36222;BME280;22266;52.340;4.962;2022-11-20T01:11:05;101372.34;;;0.63;65.70
36222;BME280;22266;52.340;4.962;2022-11-20T01:13:32;101375.13;;;0.61;65.57
36222;BME280;22266;52.340;4.962;2022-11-20T01:16:13;101370.69;;;0.62;66.42
36222;BME280;22266;52.340;4.962;2022-11-20T01:18:43;101368.13;;;0.60;66.50
36222;BME280;22266;52.340;4.962;2022-11-20T01:21:14;101364.78;;;0.58;66.43
36222;BME280;22266;52.340;4.962;2022-11-20T01:23:42;101364.03;;;0.56;66.17
36222;BME280;22266;52.340;4.962;2022-11-20T01:26:11;101358.13;;;0.53;66.27
36222;BME280;22266;52.340;4.962;2022-11-20T01:28:40;101352.94;;;0.51;66.87
36222;BME280;22266;52.340;4.962;2022-11-20T01:31:53;101353.78;;;0.52;66.63
36222;BME280;22266;52.340;4.962;2022-11-20T01:34:04;101346.44;;;0.55;66.66
36222;BME280;22266;52.340;4.962;2022-11-20T01:36:33;101343.94;;;0.54;66.12
36222;BME280;22266;52.340;4.962;2022-11-20T01:39:03;101343.19;;;0.52;66.59
36222;BME280;22266;52.340;4.962;2022-11-20T01:41:31;101344.16;;;0.51;66.78
36222;BME280;22266;52.340;4.962;2022-11-20T01:44:21;101344.28;;;0.49;66.42
36222;BME280;22266;52.340;4.962;2022-11-20T01:46:59;101339.44;;;0.43;66.11
36222;BME280;22266;52.340;4.962;2022-11-20T01:49:37;101338.81;;;0.39;66.70
36222;BME280;22266;52.340;4.962;2022-11-20T01:52:08;101333.75;;;0.36;66.05
36222;BME280;22266;52.340;4.962;2022-11-20T01:54:44;101338.47;;;0.33;66.38
36222;BME280;22266;52.340;4.962;2022-11-20T01:57:13;101334.00;;;0.33;67.12
36222;BME280;22266;52.340;4.962;2022-11-20T01:59:54;101333.25;;;0.31;66.80
36222;BME280;22266;52.340;4.962;2022-11-20T02:02:23;101337.84;;;0.29;66.72
36222;BME280;22266;52.340;4.962;2022-11-20T02:04:51;101312.31;;;0.28;66.93
36222;BME280;22266;52.340;4.962;2022-11-20T02:07:20;101317.50;;;0.30;67.33
36222;BME280;22266;52.340;4.962;2022-11-20T02:09:47;101315.56;;;0.32;67.38
36222;BME280;22266;52.340;4.962;2022-11-20T02:12:14;101314.72;;;0.31;67.05
36222;BME280;22266;52.340;4.962;2022-11-20T02:15:00;101320.16;;;0.30;67.63
36222;BME280;22266;52.340;4.962;2022-11-20T02:17:27;101317.59;;;0.28;66.98
36222;BME280;22266;52.340;4.962;2022-11-20T02:19:54;101316.88;;;0.26;67.76
36222;BME280;22266;52.340;4.962;2022-11-20T02:22:29;101315.22;;;0.25;67.70
36222;BME280;22266;52.340;4.962;2022-11-20T02:24:59;101317.13;;;0.23;67.24
36222;BME280;22266;52.340;4.962;2022-11-20T02:27:28;101313.75;;;0.21;67.65
36222;BME280;22266;52.340;4.962;2022-11-20T02:30:04;101313.75;;;0.21;67.57
36222;BME280;22266;52.340;4.962;2022-11-20T02:32:33;101309.16;;;0.23;67.34
36222;BME280;22266;52.340;4.962;2022-11-20T02:37:54;101312.03;;;0.20;67.36
36222;BME280;22266;52.340;4.962;2022-11-20T02:40:22;101316.50;;;0.19;67.21
36222;BME280;22266;52.340;4.962;2022-11-20T02:42:52;101311.34;;;0.18;67.52
36222;BME280;22266;52.340;4.962;2022-11-20T02:45:19;101311.56;;;0.15;67.53
36222;BME280;22266;52.340;4.962;2022-11-20T02:47:46;101309.13;;;0.12;67.65
36222;BME280;22266;52.340;4.962;2022-11-20T02:50:12;101300.59;;;0.08;67.62
36222;BME280;22266;52.340;4.962;2022-11-20T02:52:38;101299.63;;;0.09;67.67
36222;BME280;22266;52.340;4.962;2022-11-20T02:55:05;101295.19;;;0.10;67.77
36222;BME280;22266;52.340;4.962;2022-11-20T02:57:32;101295.06;;;0.11;67.57
36222;BME280;22266;52.340;4.962;2022-11-20T02:59:58;101300.34;;;0.11;68.00
36222;BME280;22266;52.340;4.962;2022-11-20T03:02:25;101297.97;;;0.08;67.71
36222;BME280;22266;52.340;4.962;2022-11-20T03:04:51;101296.50;;;0.04;67.41
36222;BME280;22266;52.340;4.962;2022-11-20T03:07:17;101297.56;;;0.02;67.80
36222;BME280;22266;52.340;4.962;2022-11-20T03:09:44;101295.63;;;0.04;68.15
36222;BME280;22266;52.340;4.962;2022-11-20T03:12:10;101290.47;;;0.02;67.42
36222;BME280;22266;52.340;4.962;2022-11-20T03:14:37;101285.38;;;-0.01;67.56
36222;BME280;22266;52.340;4.962;2022-11-20T03:17:03;101283.84;;;-0.04;67.72
36222;BME280;22266;52.340;4.962;2022-11-20T03:19:30;101285.59;;;-0.04;67.70
36222;BME280;22266;52.340;4.962;2022-11-20T03:21:56;101279.59;;;-0.06;67.64
36222;BME280;22266;52.340;4.962;2022-11-20T03:24:22;101276.34;;;-0.10;68.19
36222;BME280;22266;52.340;4.962;2022-11-20T03:26:49;101279.00;;;-0.10;68.02
36222;BME280;22266;52.340;4.962;2022-11-20T03:29:15;101274.53;;;-0.09;68.13
36222;BME280;22266;52.340;4.962;2022-11-20T03:31:42;101267.56;;;-0.10;68.03
36222;BME280;22266;52.340;4.962;2022-11-20T03:34:10;101269.38;;;-0.11;68.60
36222;BME280;22266;52.340;4.962;2022-11-20T03:36:38;101262.97;;;-0.08;68.46
36222;BME280;22266;52.340;4.962;2022-11-20T03:39:05;101268.19;;;-0.07;68.48
36222;BME280;22266;52.340;4.962;2022-11-20T03:41:36;101260.13;;;-0.05;68.09
36222;BME280;22266;52.340;4.962;2022-11-20T03:44:05;101255.66;;;-0.05;68.33
36222;BME280;22266;52.340;4.962;2022-11-20T03:46:32;101262.06;;;-0.07;67.91
36222;BME280;22266;52.340;4.962;2022-11-20T03:48:58;101257.59;;;-0.07;68.31
36222;BME280;22266;52.340;4.962;2022-11-20T03:51:27;101258.22;;;-0.03;68.55
36222;BME280;22266;52.340;4.962;2022-11-20T03:53:56;101257.38;;;-0.04;68.05
36222;BME280;22266;52.340;4.962;2022-11-20T03:56:25;101252.91;;;-0.03;68.14
36222;BME280;22266;52.340;4.962;2022-11-20T03:58:52;101255.44;;;-0.02;68.31
36222;BME280;22266;52.340;4.962;2022-11-20T04:01:30;101252.78;;;-0.02;68.01
36222;BME280;22266;52.340;4.962;2022-11-20T04:03:57;101246.78;;;-0.04;68.15
36222;BME280;22266;52.340;4.962;2022-11-20T04:06:26;101236.44;;;-0.07;67.89
36222;BME280;22266;52.340;4.962;2022-11-20T04:08:57;101231.34;;;-0.10;67.67
36222;BME280;22266;52.340;4.962;2022-11-20T04:11:26;101228.09;;;-0.13;67.53
36222;BME280;22266;52.340;4.962;2022-11-20T04:14:00;101222.81;;;-0.13;68.07
36222;BME280;22266;52.340;4.962;2022-11-20T04:16:32;101215.97;;;-0.16;68.31
36222;BME280;22266;52.340;4.962;2022-11-20T04:19:02;101221.47;;;-0.19;68.17
36222;BME280;22266;52.340;4.962;2022-11-20T04:21:29;101217.16;;;-0.20;68.25
36222;BME280;22266;52.340;4.962;2022-11-20T04:23:56;101218.09;;;-0.21;67.92
36222;BME280;22266;52.340;4.962;2022-11-20T04:26:25;101222.44;;;-0.20;67.91
36222;BME280;22266;52.340;4.962;2022-11-20T04:28:52;101220.63;;;-0.19;68.26
36222;BME280;22266;52.340;4.962;2022-11-20T04:31:21;101224.22;;;-0.20;68.28
36222;BME280;22266;52.340;4.962;2022-11-20T04:33:47;101224.47;;;-0.23;67.98
36222;BME280;22266;52.340;4.962;2022-11-20T04:36:17;101227.22;;;-0.25;67.78
36222;BME280;22266;52.340;4.962;2022-11-20T04:38:44;101228.31;;;-0.28;68.32
36222;BME280;22266;52.340;4.962;2022-11-20T04:41:18;101220.25;;;-0.26;68.28
36222;BME280;22266;52.340;4.962;2022-11-20T04:43:54;101217.72;;;-0.28;68.67
36222;BME280;22266;52.340;4.962;2022-11-20T04:46:26;101217.81;;;-0.29;68.47
36222;BME280;22266;52.340;4.962;2022-11-20T04:48:53;101213.50;;;-0.30;68.61
36222;BME280;22266;52.340;4.962;2022-11-20T04:51:19;101213.50;;;-0.30;68.48
36222;BME280;22266;52.340;4.962;2022-11-20T04:53:46;101216.88;;;-0.28;68.73
36222;BME280;22266;52.340;4.962;2022-11-20T04:56:13;101209.53;;;-0.25;68.55
36222;BME280;22266;52.340;4.962;2022-11-20T04:58:40;101198.63;;;-0.20;68.66
36222;BME280;22266;52.340;4.962;2022-11-20T05:01:12;101201.16;;;-0.18;68.91
36222;BME280;22266;52.340;4.962;2022-11-20T05:03:40;101191.53;;;-0.19;68.40
36222;BME280;22266;52.340;4.962;2022-11-20T05:06:10;101183.69;;;-0.21;68.51
36222;BME280;22266;52.340;4.962;2022-11-20T05:08:36;101193.44;;;-0.21;68.21
36222;BME280;22266;52.340;4.962;2022-11-20T05:11:08;101182.84;;;-0.21;68.69
36222;BME280;22266;52.340;4.962;2022-11-20T05:13:36;101187.53;;;-0.25;68.60
36222;BME280;22266;52.340;4.962;2022-11-20T05:16:11;101172.63;;;-0.26;68.52
36222;BME280;22266;52.340;4.962;2022-11-20T05:18:40;101181.75;;;-0.30;68.31
36222;BME280;22266;52.340;4.962;2022-11-20T05:21:07;101186.22;;;-0.31;68.83
36222;BME280;22266;52.340;4.962;2022-11-20T05:23:35;101181.03;;;-0.32;68.38
36222;BME280;22266;52.340;4.962;2022-11-20T05:26:02;101194.50;;;-0.35;68.26
36222;BME280;22266;52.340;4.962;2022-11-20T05:28:29;101191.94;;;-0.37;68.33
36222;BME280;22266;52.340;4.962;2022-11-20T05:31:06;101182.56;;;-0.41;68.62
36222;BME280;22266;52.340;4.962;2022-11-20T05:33:34;101183.50;;;-0.42;69.01
36222;BME280;22266;52.340;4.962;2022-11-20T05:36:03;101186.06;;;-0.40;69.27
36222;BME280;22266;52.340;4.962;2022-11-20T05:38:30;101198.41;;;-0.41;69.13
36222;BME280;22266;52.340;4.962;2022-11-20T05:41:13;101195.91;;;-0.42;68.83
36222;BME280;22266;52.340;4.962;2022-11-20T05:43:41;101199.28;;;-0.40;68.62
36222;BME280;22266;52.340;4.962;2022-11-20T05:46:10;101189.41;;;-0.38;68.81
36222;BME280;22266;52.340;4.962;2022-11-20T05:48:38;101196.53;;;-0.39;68.94
36222;BME280;22266;52.340;4.962;2022-11-20T05:51:07;101205.41;;;-0.40;68.85
36222;BME280;22266;52.340;4.962;2022-11-20T05:53:34;101203.72;;;-0.41;68.52
36222;BME280;22266;52.340;4.962;2022-11-20T05:56:04;101205.41;;;-0.40;68.70
36222;BME280;22266;52.340;4.962;2022-11-20T05:58:32;101200.97;;;-0.39;69.01
36222;BME280;22266;52.340;4.962;2022-11-20T06:01:25;101199.28;;;-0.40;69.04
36222;BME280;22266;52.340;4.962;2022-11-20T06:03:52;101203.63;;;-0.39;68.57
36222;BME280;22266;52.340;4.962;2022-11-20T06:06:19;101199.16;;;-0.39;69.09
36222;BME280;22266;52.340;4.962;2022-11-20T06:08:46;101192.06;;;-0.38;69.07
36222;BME280;22266;52.340;4.962;2022-11-20T06:11:14;101191.34;;;-0.40;68.65
36222;BME280;22266;52.340;4.962;2022-11-20T06:13:41;101193.38;;;-0.44;68.66
36222;BME280;22266;52.340;4.962;2022-11-20T06:16:09;101192.53;;;-0.44;68.39
36222;BME280;22266;52.340;4.962;2022-11-20T06:18:36;101196.13;;;-0.45;69.15
36222;BME280;22266;52.340;4.962;2022-11-20T06:21:11;101204.06;;;-0.45;69.24
36222;BME280;22266;52.340;4.962;2022-11-20T06:23:37;101195.28;;;-0.46;68.84
36222;BME280;22266;52.340;4.962;2022-11-20T06:26:06;101190.13;;;-0.47;68.83
36222;BME280;22266;52.340;4.962;2022-11-20T06:28:33;101191.09;;;-0.48;69.10
36222;BME280;22266;52.340;4.962;2022-11-20T06:31:00;101190.97;;;-0.47;69.26
36222;BME280;22266;52.340;4.962;2022-11-20T06:33:27;101189.28;;;-0.48;69.20
36222;BME280;22266;52.340;4.962;2022-11-20T06:35:56;101199.03;;;-0.48;69.37
36222;BME280;22266;52.340;4.962;2022-11-20T06:38:28;101188.19;;;-0.45;69.15
36222;BME280;22266;52.340;4.962;2022-11-20T06:40:55;101184.59;;;-0.44;68.99
36222;BME280;22266;52.340;4.962;2022-11-20T06:43:22;101187.97;;;-0.42;69.80
36222;BME280;22266;52.340;4.962;2022-11-20T06:45:56;101180.88;;;-0.42;69.41
36222;BME280;22266;52.340;4.962;2022-11-20T06:48:23;101176.41;;;-0.41;69.42
36222;BME280;22266;52.340;4.962;2022-11-20T06:50:50;101179.19;;;-0.43;69.42
36222;BME280;22266;52.340;4.962;2022-11-20T06:53:16;101190.59;;;-0.42;69.25
36222;BME280;22266;52.340;4.962;2022-11-20T06:55:44;101168.50;;;-0.41;69.78
36222;BME280;22266;52.340;4.962;2022-11-20T06:58:11;101173.69;;;-0.40;69.78
36222;BME280;22266;52.340;4.962;2022-11-20T07:00:38;101177.16;;;-0.39;69.38
36222;BME280;22266;52.340;4.962;2022-11-20T07:03:06;101167.66;;;-0.42;69.24
36222;BME280;22266;52.340;4.962;2022-11-20T07:05:33;101165.75;;;-0.40;69.70
36222;BME280;22266;52.340;4.962;2022-11-20T07:07:59;101166.59;;;-0.39;69.46
36222;BME280;22266;52.340;4.962;2022-11-20T07:10:26;101158.53;;;-0.38;69.88
36222;BME280;22266;52.340;4.962;2022-11-20T07:12:53;101159.25;;;-0.36;69.85
36222;BME280;22266;52.340;4.962;2022-11-20T07:15:21;101153.13;;;-0.36;69.61
36222;BME280;22266;52.340;4.962;2022-11-20T07:17:48;101149.63;;;-0.37;69.36
36222;BME280;22266;52.340;4.962;2022-11-20T07:20:14;101149.41;;;-0.34;69.80
36222;BME280;22266;52.340;4.962;2022-11-20T07:22:41;101140.75;;;-0.36;70.01
36222;BME280;22266;52.340;4.962;2022-11-20T07:25:09;101152.16;;;-0.35;70.00
36222;BME280;22266;52.340;4.962;2022-11-20T07:27:36;101149.31;;;-0.32;70.01
36222;BME280;22266;52.340;4.962;2022-11-20T07:30:03;101153.50;;;-0.30;70.07
36222;BME280;22266;52.340;4.962;2022-11-20T07:32:30;101160.38;;;-0.27;70.52
36222;BME280;22266;52.340;4.962;2022-11-20T07:34:57;101159.28;;;-0.25;70.14
36222;BME280;22266;52.340;4.962;2022-11-20T07:37:23;101162.53;;;-0.21;70.42
36222;BME280;22266;52.340;4.962;2022-11-20T07:39:50;101168.34;;;-0.16;70.00
36222;BME280;22266;52.340;4.962;2022-11-20T07:42:16;101172.66;;;-0.15;70.17
36222;BME280;22266;52.340;4.962;2022-11-20T07:44:42;101166.41;;;-0.14;70.30
36222;BME280;22266;52.340;4.962;2022-11-20T07:47:09;101162.78;;;-0.13;70.05
36222;BME280;22266;52.340;4.962;2022-11-20T07:49:35;101161.59;;;-0.09;70.06
36222;BME280;22266;52.340;4.962;2022-11-20T07:52:02;101152.47;;;-0.05;70.42
36222;BME280;22266;52.340;4.962;2022-11-20T07:54:30;101147.78;;;-0.01;69.76
36222;BME280;22266;52.340;4.962;2022-11-20T07:56:57;101148.50;;;0.01;70.32
36222;BME280;22266;52.340;4.962;2022-11-20T07:59:23;101148.75;;;0.09;70.01
36222;BME280;22266;52.340;4.962;2022-11-20T08:01:49;101142.03;;;0.16;70.40
36222;BME280;22266;52.340;4.962;2022-11-20T08:04:16;101134.94;;;0.17;69.72
36222;BME280;22266;52.340;4.962;2022-11-20T08:06:42;101143.72;;;0.17;70.05
36222;BME280;22266;52.340;4.962;2022-11-20T08:09:09;101138.03;;;0.11;69.88
36222;BME280;22266;52.340;4.962;2022-11-20T08:11:35;101141.66;;;0.10;70.11
36222;BME280;22266;52.340;4.962;2022-11-20T08:14:20;101142.38;;;0.12;70.24
36222;BME280;22266;52.340;4.962;2022-11-20T08:16:48;101139.50;;;0.15;70.53
36222;BME280;22266;52.340;4.962;2022-11-20T08:19:17;101132.38;;;0.15;70.43
36222;BME280;22266;52.340;4.962;2022-11-20T08:21:44;101137.31;;;0.20;71.09
36222;BME280;22266;52.340;4.962;2022-11-20T08:24:11;101137.81;;;0.25;71.57
36222;BME280;22266;52.340;4.962;2022-11-20T08:26:38;101129.63;;;0.28;71.74
36222;BME280;22266;52.340;4.962;2022-11-20T08:29:05;101135.88;;;0.27;71.74
36222;BME280;22266;52.340;4.962;2022-11-20T08:31:32;101135.28;;;0.23;71.59
36222;BME280;22266;52.340;4.962;2022-11-20T08:33:58;101138.75;;;0.24;71.84
36222;BME280;22266;52.340;4.962;2022-11-20T08:36:25;101142.38;;;0.23;71.76
36222;BME280;22266;52.340;4.962;2022-11-20T08:38:54;101137.22;;;0.21;71.35
36222;BME280;22266;52.340;4.962;2022-11-20T08:41:21;101145.25;;;0.20;71.28
36222;BME280;22266;52.340;4.962;2022-11-20T08:43:56;101142.88;;;0.17;71.44
36222;BME280;22266;52.340;4.962;2022-11-20T08:46:25;101138.88;;;0.11;71.40
36222;BME280;22266;52.340;4.962;2022-11-20T08:48:52;101144.09;;;0.13;71.26
36222;BME280;22266;52.340;4.962;2022-11-20T08:51:19;101154.66;;;0.13;71.02
36222;BME280;22266;52.340;4.962;2022-11-20T08:53:46;101152.03;;;0.13;70.89
36222;BME280;22266;52.340;4.962;2022-11-20T08:56:14;101147.44;;;0.15;71.22
36222;BME280;22266;52.340;4.962;2022-11-20T08:58:41;101133.97;;;0.18;71.59
36222;BME280;22266;52.340;4.962;2022-11-20T09:01:28;101132.75;;;0.22;71.65
36222;BME280;22266;52.340;4.962;2022-11-20T09:03:56;101128.31;;;0.22;71.38
36222;BME280;22266;52.340;4.962;2022-11-20T09:06:23;101133.22;;;0.27;71.46
36222;BME280;22266;52.340;4.962;2022-11-20T09:08:53;101130.72;;;0.26;71.57
36222;BME280;22266;52.340;4.962;2022-11-20T09:11:20;101126.13;;;0.28;71.38
36222;BME280;22266;52.340;4.962;2022-11-20T09:13:46;101121.81;;;0.27;71.22
36222;BME280;22266;52.340;4.962;2022-11-20T09:16:13;101109.19;;;0.30;71.76
36222;BME280;22266;52.340;4.962;2022-11-20T09:18:39;101107.97;;;0.34;71.74
36222;BME280;22266;52.340;4.962;2022-11-20T09:21:10;101100.50;;;0.39;71.12
36222;BME280;22266;52.340;4.962;2022-11-20T09:23:37;101098.59;;;0.41;71.16
36222;BME280;22266;52.340;4.962;2022-11-20T09:26:06;101105.56;;;0.42;71.48
36222;BME280;22266;52.340;4.962;2022-11-20T09:28:33;101106.03;;;0.47;71.04
36222;BME280;22266;52.340;4.962;2022-11-20T09:30:59;101104.72;;;0.53;70.87
36222;BME280;22266;52.340;4.962;2022-11-20T09:33:26;101091.78;;;0.60;70.85
36222;BME280;22266;52.340;4.962;2022-11-20T09:35:52;101081.41;;;0.68;71.15
36222;BME280;22266;52.340;4.962;2022-11-20T09:38:19;101081.91;;;0.73;70.50
36222;BME280;22266;52.340;4.962;2022-11-20T09:41:06;101077.16;;;0.77;70.44
36222;BME280;22266;52.340;4.962;2022-11-20T09:51:46;101064.03;;;0.86;70.51
36222;BME280;22266;52.340;4.962;2022-11-20T09:54:19;101067.38;;;0.88;70.75
36222;BME280;22266;52.340;4.962;2022-11-20T09:56:54;101065.06;;;0.95;70.51
36222;BME280;22266;52.340;4.962;2022-11-20T10:02:28;101060.03;;;0.92;70.73
36222;BME280;22266;52.340;4.962;2022-11-20T10:05:04;101057.97;;;0.95;70.66
36222;BME280;22266;52.340;4.962;2022-11-20T10:07:43;101051.97;;;0.93;70.90
36222;BME280;22266;52.340;4.962;2022-11-20T10:10:22;101055.91;;;0.99;70.74
36222;BME280;22266;52.340;4.962;2022-11-20T10:13:33;101059.03;;;0.93;71.11
36222;BME280;22266;52.340;4.962;2022-11-20T10:19:30;101022.88;;;1.03;71.74
36222;BME280;22266;52.340;4.962;2022-11-20T10:22:20;101014.28;;;1.11;71.57
36222;BME280;22266;52.340;4.962;2022-11-20T10:28:03;101001.53;;;1.05;71.48
36222;BME280;22266;52.340;4.962;2022-11-20T10:30:42;101001.72;;;1.13;71.90
36222;BME280;22266;52.340;4.962;2022-11-20T10:33:21;100993.97;;;1.21;71.66
36222;BME280;22266;52.340;4.962;2022-11-20T10:35:54;100996.22;;;1.26;71.45
36222;BME280;22266;52.340;4.962;2022-11-20T10:41:01;100993.31;;;1.29;71.07
36222;BME280;22266;52.340;4.962;2022-11-20T10:43:52;100984.19;;;1.21;71.45
36222;BME280;22266;52.340;4.962;2022-11-20T10:46:22;100978.78;;;1.23;71.88
36222;BME280;22266;52.340;4.962;2022-11-20T10:48:49;100979.63;;;1.23;71.32
36222;BME280;22266;52.340;4.962;2022-11-20T10:51:37;100966.53;;;1.32;71.73
36222;BME280;22266;52.340;4.962;2022-11-20T10:57:10;100944.41;;;1.42;71.41
36222;BME280;22266;52.340;4.962;2022-11-20T11:02:23;100943.34;;;1.55;71.55
36222;BME280;22266;52.340;4.962;2022-11-20T11:04:53;100941.94;;;1.51;71.52
36222;BME280;22266;52.340;4.962;2022-11-20T11:07:27;100941.28;;;1.58;72.00
36222;BME280;22266;52.340;4.962;2022-11-20T11:09:56;100936.91;;;1.57;71.63
36222;BME280;22266;52.340;4.962;2022-11-20T11:12:25;100932.59;;;1.56;71.45
36222;BME280;22266;52.340;4.962;2022-11-20T11:14:55;100932.84;;;1.53;71.76
36222;BME280;22266;52.340;4.962;2022-11-20T11:17:34;100920.44;;;1.54;72.27
36222;BME280;22266;52.340;4.962;2022-11-20T11:20:16;100914.75;;;1.58;72.17
36222;BME280;22266;52.340;4.962;2022-11-20T11:22:49;100914.84;;;1.57;71.99
36222;BME280;22266;52.340;4.962;2022-11-20T11:25:35;100914.44;;;1.61;72.08
36222;BME280;22266;52.340;4.962;2022-11-20T11:28:17;100915.59;;;1.68;72.18
36222;BME280;22266;52.340;4.962;2022-11-20T11:30:46;100911.00;;;1.70;71.99
36222;BME280;22266;52.340;4.962;2022-11-20T11:33:21;100896.44;;;1.65;71.46
36222;BME280;22266;52.340;4.962;2022-11-20T11:35:58;100887.09;;;1.61;72.04
36222;BME280;22266;52.340;4.962;2022-11-20T11:38:36;100890.00;;;1.58;72.44
36222;BME280;22266;52.340;4.962;2022-11-20T11:41:05;100881.66;;;1.62;73.07
36222;BME280;22266;52.340;4.962;2022-11-20T11:43:34;100869.34;;;1.61;73.07
36222;BME280;22266;52.340;4.962;2022-11-20T11:49:01;100864.59;;;1.55;73.45
36222;BME280;22266;52.340;4.962;2022-11-20T11:54:25;100848.28;;;1.60;74.05
36222;BME280;22266;52.340;4.962;2022-11-20T11:56:53;100838.91;;;1.56;73.79
36222;BME280;22266;52.340;4.962;2022-11-20T12:02:38;100851.19;;;1.57;74.86
36222;BME280;22266;52.340;4.962;2022-11-20T12:05:43;100854.66;;;1.57;75.03
36222;BME280;22266;52.340;4.962;2022-11-20T12:08:27;100839.31;;;1.61;74.99
36222;BME280;22266;52.340;4.962;2022-11-20T12:13:43;100841.00;;;1.52;75.91
36222;BME280;22266;52.340;4.962;2022-11-20T12:16:13;100829.69;;;1.50;75.44
36222;BME280;22266;52.340;4.962;2022-11-20T12:18:41;100825.22;;;1.51;75.79
36222;BME280;22266;52.340;4.962;2022-11-20T12:35:00;100790.59;;;1.62;76.64
36222;BME280;22266;52.340;4.962;2022-11-20T12:37:48;100783.75;;;1.59;77.58
36222;BME280;22266;52.340;4.962;2022-11-20T12:40:34;100777.31;;;1.62;77.63
36222;BME280;22266;52.340;4.962;2022-11-20T12:43:24;100777.78;;;1.67;78.33
36222;BME280;22266;52.340;4.962;2022-11-20T12:49:08;100753.59;;;1.70;78.21
36222;BME280;22266;52.340;4.962;2022-11-20T12:51:54;100750.66;;;1.73;78.38
36222;BME280;22266;52.340;4.962;2022-11-20T12:54:49;100744.78;;;1.69;78.61
36222;BME280;22266;52.340;4.962;2022-11-20T12:57:39;100725.53;;;1.67;79.31
36222;BME280;22266;52.340;4.962;2022-11-20T13:08:31;100705.00;;;1.69;79.77
36222;BME280;22266;52.340;4.962;2022-11-20T13:17:00;100730.56;;;1.80;80.37
36222;BME280;22266;52.340;4.962;2022-11-20T13:19:32;100719.38;;;1.77;80.57
36222;BME280;22266;52.340;4.962;2022-11-20T13:21:59;100722.03;;;1.77;80.92
36222;BME280;22266;52.340;4.962;2022-11-20T13:24:30;100726.50;;;1.76;81.22
36222;BME280;22266;52.340;4.962;2022-11-20T13:29:31;100716.66;;;2.25;84.28
36222;BME280;22266;52.340;4.962;2022-11-20T13:32:16;100708.69;;;2.25;82.56
36222;BME280;22266;52.340;4.962;2022-11-20T13:34:57;100710.25;;;2.18;81.63
36222;BME280;22266;52.340;4.962;2022-11-20T13:37:37;100697.56;;;2.12;81.10
36222;BME280;22266;52.340;4.962;2022-11-20T13:42:44;100678.72;;;1.95;80.88
36222;BME280;22266;52.340;4.962;2022-11-20T13:45:26;100675.94;;;1.87;80.96
36222;BME280;22266;52.340;4.962;2022-11-20T13:47:54;100686.69;;;1.86;81.46
36222;BME280;22266;52.340;4.962;2022-11-20T13:50:39;100675.63;;;1.90;81.82
36222;BME280;22266;52.340;4.962;2022-11-20T13:53:25;100678.44;;;1.98;81.89
36222;BME280;22266;52.340;4.962;2022-11-20T13:56:00;100679.41;;;1.97;81.61
36222;BME280;22266;52.340;4.962;2022-11-20T14:01:23;100650.63;;;1.93;81.89
36222;BME280;22266;52.340;4.962;2022-11-20T14:03:52;100641.56;;;1.86;81.73
36222;BME280;22266;52.340;4.962;2022-11-20T14:06:41;100631.38;;;1.91;81.93
36222;BME280;22266;52.340;4.962;2022-11-20T14:09:31;100620.88;;;1.89;82.28
36222;BME280;22266;52.340;4.962;2022-11-20T14:11:58;100603.13;;;1.90;82.55
36222;BME280;22266;52.340;4.962;2022-11-20T14:14:27;100596.56;;;1.94;82.29
36222;BME280;22266;52.340;4.962;2022-11-20T14:17:23;100598.53;;;1.92;82.01
36222;BME280;22266;52.340;4.962;2022-11-20T14:19:52;100592.41;;;1.91;82.02
36222;BME280;22266;52.340;4.962;2022-11-20T14:22:21;100591.56;;;1.91;82.09
36222;BME280;22266;52.340;4.962;2022-11-20T14:24:51;100607.88;;;1.96;82.63
36222;BME280;22266;52.340;4.962;2022-11-20T14:27:26;100609.56;;;1.97;83.05
36222;BME280;22266;52.340;4.962;2022-11-20T14:29:53;100605.19;;;2.06;83.07
36222;BME280;22266;52.340;4.962;2022-11-20T14:32:21;100616.34;;;2.09;83.30
36222;BME280;22266;52.340;4.962;2022-11-20T14:34:53;100600.16;;;2.12;82.93
36222;BME280;22266;52.340;4.962;2022-11-20T14:37:23;100600.00;;;2.14;82.37